sensor_id;sensor_type;location;lat;lon;timestamp;P1;durP1;ratioP1;P2;durP2;ratioP2
73487;SDS011;61721;42.206;25.320;2022-08-19T00:02:38;7.80;;;4.72;;
73487;SDS011;61721;42.206;25.320;2022-08-19T00:05:21;8.05;;;5.35;;
73487;SDS011;61721;42.206;25.320;2022-08-19T00:08:04;9.95;;;5.28;;
73487;SDS011;61721;42.206;25.320;2022-08-19T00:10:46;7.97;;;4.70;;
73487;SDS011;61721;42.206;25.320;2022-08-19T00:13:29;6.95;;;5.05;;
73487;SDS011;61721;42.206;25.320;2022-08-19T00:16:13;7.38;;;4.97;;
73487;SDS011;61721;42.206;25.320;2022-08-19T00:18:55;8.65;;;5.70;;
73487;SDS011;61721;42.206;25.320;2022-08-19T00:21:37;8.95;;;5.63;;
73487;SDS011;61721;42.206;25.320;2022-08-19T00:24:20;9.32;;;6.05;;
73487;SDS011;61721;42.206;25.320;2022-08-19T00:27:02;8.77;;;5.00;;
73487;SDS011;61721;42.206;25.320;2022-08-19T00:29:45;6.65;;;5.03;;
73487;SDS011;61721;42.206;25.320;2022-08-19T00:32:30;8.43;;;5.28;;
73487;SDS011;61721;42.206;25.320;2022-08-19T00:35:12;9.60;;;5.40;;
73487;SDS011;61721;42.206;25.320;2022-08-19T00:37:55;11.55;;;5.00;;
73487;SDS011;61721;42.206;25.320;2022-08-19T00:40:37;7.90;;;5.22;;
73487;SDS011;61721;42.206;25.320;2022-08-19T00:43:20;7.65;;;5.05;;
73487;SDS011;61721;42.206;25.320;2022-08-19T00:46:04;7.05;;;5.30;;
73487;SDS011;61721;42.206;25.320;2022-08-19T00:48:48;9.43;;;5.13;;
73487;SDS011;61721;42.206;25.320;2022-08-19T00:51:30;9.00;;;5.72;;
73487;SDS011;61721;42.206;25.320;2022-08-19T00:54:14;12.25;;;5.18;;
73487;SDS011;61721;42.206;25.320;2022-08-19T00:56:58;10.65;;;6.80;;
73487;SDS011;61721;42.206;25.320;2022-08-19T00:59:42;9.63;;;5.55;;
73487;SDS011;61721;42.206;25.320;2022-08-19T01:02:27;9.52;;;5.72;;
73487;SDS011;61721;42.206;25.320;2022-08-19T01:05:13;9.15;;;5.90;;
73487;SDS011;61721;42.206;25.320;2022-08-19T01:07:59;8.60;;;5.30;;
73487;SDS011;61721;42.206;25.320;2022-08-19T01:10:45;8.13;;;5.80;;
73487;SDS011;61721;42.206;25.320;2022-08-19T01:13:30;9.35;;;5.20;;
73487;SDS011;61721;42.206;25.320;2022-08-19T01:16:15;8.10;;;5.40;;
73487;SDS011;61721;42.206;25.320;2022-08-19T01:19:00;7.50;;;4.88;;
73487;SDS011;61721;42.206;25.320;2022-08-19T01:21:46;10.27;;;5.30;;
73487;SDS011;61721;42.206;25.320;2022-08-19T01:24:35;8.63;;;5.10;;
73487;SDS011;61721;42.206;25.320;2022-08-19T01:27:17;7.65;;;4.75;;
73487;SDS011;61721;42.206;25.320;2022-08-19T01:35:24;8.65;;;5.13;;
73487;SDS011;61721;42.206;25.320;2022-08-19T01:38:10;9.40;;;5.30;;
73487;SDS011;61721;42.206;25.320;2022-08-19T01:41:05;11.38;;;5.50;;
73487;SDS011;61721;42.206;25.320;2022-08-19T01:43:47;8.38;;;5.82;;
73487;SDS011;61721;42.206;25.320;2022-08-19T01:46:30;8.60;;;5.18;;
73487;SDS011;61721;42.206;25.320;2022-08-19T01:49:13;11.75;;;5.78;;
73487;SDS011;61721;42.206;25.320;2022-08-19T01:51:56;9.93;;;5.13;;
73487;SDS011;61721;42.206;25.320;2022-08-19T01:54:40;7.75;;;5.43;;
73487;SDS011;61721;42.206;25.320;2022-08-19T02:00:07;10.10;;;5.40;;
73487;SDS011;61721;42.206;25.320;2022-08-19T02:02:52;7.90;;;4.85;;
73487;SDS011;61721;42.206;25.320;2022-08-19T02:08:16;8.23;;;5.43;;
73487;SDS011;61721;42.206;25.320;2022-08-19T02:10:59;11.80;;;5.80;;
73487;SDS011;61721;42.206;25.320;2022-08-19T02:13:42;10.80;;;5.70;;
73487;SDS011;61721;42.206;25.320;2022-08-19T02:16:25;7.93;;;5.53;;
73487;SDS011;61721;42.206;25.320;2022-08-19T02:21:50;11.60;;;5.70;;
73487;SDS011;61721;42.206;25.320;2022-08-19T02:24:33;9.05;;;5.85;;
73487;SDS011;61721;42.206;25.320;2022-08-19T02:27:15;9.60;;;6.63;;
73487;SDS011;61721;42.206;25.320;2022-08-19T02:29:59;11.45;;;6.82;;
73487;SDS011;61721;42.206;25.320;2022-08-19T02:32:42;10.05;;;6.03;;
73487;SDS011;61721;42.206;25.320;2022-08-19T02:35:25;7.75;;;6.00;;
73487;SDS011;61721;42.206;25.320;2022-08-19T02:41:10;11.18;;;5.57;;
73487;SDS011;61721;42.206;25.320;2022-08-19T02:43:54;7.97;;;5.50;;
73487;SDS011;61721;42.206;25.320;2022-08-19T02:46:39;11.32;;;6.18;;
73487;SDS011;61721;42.206;25.320;2022-08-19T02:49:22;9.80;;;6.95;;
73487;SDS011;61721;42.206;25.320;2022-08-19T02:52:04;10.55;;;6.07;;
73487;SDS011;61721;42.206;25.320;2022-08-19T03:03:00;10.98;;;5.85;;
73487;SDS011;61721;42.206;25.320;2022-08-19T03:05:49;9.73;;;6.40;;
73487;SDS011;61721;42.206;25.320;2022-08-19T03:11:19;13.10;;;8.68;;
73487;SDS011;61721;42.206;25.320;2022-08-19T03:14:03;11.63;;;6.10;;
73487;SDS011;61721;42.206;25.320;2022-08-19T03:16:47;9.15;;;5.65;;
73487;SDS011;61721;42.206;25.320;2022-08-19T03:19:32;25.73;;;7.20;;
73487;SDS011;61721;42.206;25.320;2022-08-19T03:22:15;23.50;;;7.32;;
73487;SDS011;61721;42.206;25.320;2022-08-19T03:24:58;19.73;;;7.60;;
73487;SDS011;61721;42.206;25.320;2022-08-19T03:30:22;18.33;;;7.75;;
73487;SDS011;61721;42.206;25.320;2022-08-19T03:33:05;16.40;;;8.13;;
73487;SDS011;61721;42.206;25.320;2022-08-19T03:36:00;14.50;;;7.38;;
73487;SDS011;61721;42.206;25.320;2022-08-19T03:38:44;14.93;;;6.97;;
73487;SDS011;61721;42.206;25.320;2022-08-19T03:41:29;21.27;;;8.40;;
73487;SDS011;61721;42.206;25.320;2022-08-19T03:44:13;9.80;;;6.75;;
73487;SDS011;61721;42.206;25.320;2022-08-19T03:46:57;10.82;;;7.22;;
73487;SDS011;61721;42.206;25.320;2022-08-19T03:49:42;9.98;;;6.72;;
73487;SDS011;61721;42.206;25.320;2022-08-19T03:52:26;10.48;;;6.28;;
73487;SDS011;61721;42.206;25.320;2022-08-19T03:55:08;10.13;;;5.93;;
73487;SDS011;61721;42.206;25.320;2022-08-19T04:00:33;11.45;;;6.57;;
73487;SDS011;61721;42.206;25.320;2022-08-19T04:03:16;9.32;;;6.47;;
73487;SDS011;61721;42.206;25.320;2022-08-19T04:05:59;10.98;;;7.80;;
73487;SDS011;61721;42.206;25.320;2022-08-19T04:08:56;8.70;;;6.47;;
73487;SDS011;61721;42.206;25.320;2022-08-19T04:11:40;10.38;;;6.38;;
73487;SDS011;61721;42.206;25.320;2022-08-19T04:14:26;11.00;;;6.32;;
73487;SDS011;61721;42.206;25.320;2022-08-19T04:17:11;14.77;;;6.88;;
73487;SDS011;61721;42.206;25.320;2022-08-19T04:19:54;14.27;;;6.88;;
73487;SDS011;61721;42.206;25.320;2022-08-19T04:28:02;11.50;;;7.28;;
73487;SDS011;61721;42.206;25.320;2022-08-19T04:30:46;11.63;;;7.07;;
73487;SDS011;61721;42.206;25.320;2022-08-19T04:33:30;10.40;;;7.13;;
73487;SDS011;61721;42.206;25.320;2022-08-19T04:36:15;15.48;;;7.97;;
73487;SDS011;61721;42.206;25.320;2022-08-19T04:39:02;16.33;;;7.25;;
73487;SDS011;61721;42.206;25.320;2022-08-19T04:41:49;14.75;;;7.35;;
73487;SDS011;61721;42.206;25.320;2022-08-19T04:44:49;15.07;;;7.30;;
73487;SDS011;61721;42.206;25.320;2022-08-19T04:47:31;12.32;;;7.13;;
73487;SDS011;61721;42.206;25.320;2022-08-19T04:50:13;12.18;;;7.13;;
73487;SDS011;61721;42.206;25.320;2022-08-19T04:52:56;10.20;;;6.50;;
73487;SDS011;61721;42.206;25.320;2022-08-19T04:55:39;11.77;;;7.25;;
73487;SDS011;61721;42.206;25.320;2022-08-19T04:58:25;11.18;;;6.40;;
73487;SDS011;61721;42.206;25.320;2022-08-19T05:01:08;9.48;;;6.80;;
73487;SDS011;61721;42.206;25.320;2022-08-19T05:03:53;12.68;;;6.93;;
73487;SDS011;61721;42.206;25.320;2022-08-19T05:06:37;13.18;;;7.38;;
73487;SDS011;61721;42.206;25.320;2022-08-19T05:09:20;14.93;;;8.80;;
73487;SDS011;61721;42.206;25.320;2022-08-19T05:12:03;17.75;;;7.25;;
73487;SDS011;61721;42.206;25.320;2022-08-19T05:14:47;9.60;;;6.50;;
73487;SDS011;61721;42.206;25.320;2022-08-19T05:17:30;14.93;;;7.30;;
73487;SDS011;61721;42.206;25.320;2022-08-19T05:20:12;13.48;;;6.53;;
73487;SDS011;61721;42.206;25.320;2022-08-19T05:23:12;9.95;;;5.90;;
73487;SDS011;61721;42.206;25.320;2022-08-19T05:25:57;11.57;;;6.35;;
73487;SDS011;61721;42.206;25.320;2022-08-19T05:28:39;9.45;;;6.05;;
73487;SDS011;61721;42.206;25.320;2022-08-19T05:31:23;12.07;;;6.55;;
73487;SDS011;61721;42.206;25.320;2022-08-19T05:34:06;12.35;;;6.40;;
73487;SDS011;61721;42.206;25.320;2022-08-19T05:36:48;9.20;;;6.72;;
73487;SDS011;61721;42.206;25.320;2022-08-19T05:39:37;11.32;;;6.63;;
73487;SDS011;61721;42.206;25.320;2022-08-19T05:42:20;9.48;;;6.07;;
73487;SDS011;61721;42.206;25.320;2022-08-19T05:45:03;8.45;;;5.88;;
73487;SDS011;61721;42.206;25.320;2022-08-19T05:47:48;9.07;;;5.78;;
73487;SDS011;61721;42.206;25.320;2022-08-19T05:50:30;11.32;;;6.05;;
73487;SDS011;61721;42.206;25.320;2022-08-19T05:53:13;13.38;;;6.35;;
73487;SDS011;61721;42.206;25.320;2022-08-19T05:55:56;8.98;;;5.88;;
73487;SDS011;61721;42.206;25.320;2022-08-19T05:58:39;9.30;;;5.88;;
73487;SDS011;61721;42.206;25.320;2022-08-19T06:01:22;8.05;;;5.70;;
73487;SDS011;61721;42.206;25.320;2022-08-19T06:04:08;9.20;;;5.82;;
73487;SDS011;61721;42.206;25.320;2022-08-19T06:06:51;10.75;;;6.32;;
73487;SDS011;61721;42.206;25.320;2022-08-19T06:09:34;9.18;;;5.95;;
73487;SDS011;61721;42.206;25.320;2022-08-19T06:12:17;9.30;;;6.20;;
73487;SDS011;61721;42.206;25.320;2022-08-19T06:17:46;9.13;;;6.10;;
73487;SDS011;61721;42.206;25.320;2022-08-19T06:20:32;11.90;;;6.18;;
73487;SDS011;61721;42.206;25.320;2022-08-19T06:23:15;7.72;;;6.05;;
73487;SDS011;61721;42.206;25.320;2022-08-19T06:25:57;8.73;;;5.65;;
73487;SDS011;61721;42.206;25.320;2022-08-19T06:31:27;9.07;;;5.72;;
73487;SDS011;61721;42.206;25.320;2022-08-19T06:34:11;8.80;;;5.82;;
73487;SDS011;61721;42.206;25.320;2022-08-19T06:36:56;7.80;;;5.63;;
73487;SDS011;61721;42.206;25.320;2022-08-19T06:39:42;11.25;;;6.05;;
73487;SDS011;61721;42.206;25.320;2022-08-19T06:42:25;9.88;;;5.50;;
73487;SDS011;61721;42.206;25.320;2022-08-19T06:47:50;7.85;;;5.45;;
73487;SDS011;61721;42.206;25.320;2022-08-19T06:50:36;8.25;;;5.10;;
73487;SDS011;61721;42.206;25.320;2022-08-19T06:53:20;7.15;;;5.40;;
73487;SDS011;61721;42.206;25.320;2022-08-19T06:56:02;7.60;;;5.88;;
73487;SDS011;61721;42.206;25.320;2022-08-19T06:58:45;8.82;;;5.20;;
73487;SDS011;61721;42.206;25.320;2022-08-19T07:01:28;10.52;;;5.53;;
73487;SDS011;61721;42.206;25.320;2022-08-19T07:04:11;17.77;;;8.13;;
73487;SDS011;61721;42.206;25.320;2022-08-19T07:06:56;9.95;;;6.07;;
73487;SDS011;61721;42.206;25.320;2022-08-19T07:09:41;10.05;;;5.68;;
73487;SDS011;61721;42.206;25.320;2022-08-19T07:12:25;9.32;;;5.60;;
73487;SDS011;61721;42.206;25.320;2022-08-19T07:15:09;9.20;;;4.93;;
73487;SDS011;61721;42.206;25.320;2022-08-19T07:17:53;9.75;;;6.00;;
73487;SDS011;61721;42.206;25.320;2022-08-19T07:20:36;9.45;;;5.43;;
73487;SDS011;61721;42.206;25.320;2022-08-19T07:23:19;7.38;;;5.20;;
73487;SDS011;61721;42.206;25.320;2022-08-19T07:26:05;7.05;;;5.18;;
73487;SDS011;61721;42.206;25.320;2022-08-19T07:28:49;8.85;;;5.55;;
73487;SDS011;61721;42.206;25.320;2022-08-19T07:31:31;8.00;;;5.45;;
73487;SDS011;61721;42.206;25.320;2022-08-19T07:34:17;11.35;;;5.55;;
73487;SDS011;61721;42.206;25.320;2022-08-19T07:37:00;7.65;;;5.93;;
73487;SDS011;61721;42.206;25.320;2022-08-19T07:39:42;7.20;;;6.18;;
73487;SDS011;61721;42.206;25.320;2022-08-19T07:42:26;10.50;;;5.68;;
73487;SDS011;61721;42.206;25.320;2022-08-19T07:45:11;10.98;;;6.50;;
73487;SDS011;61721;42.206;25.320;2022-08-19T07:47:53;11.80;;;5.75;;
73487;SDS011;61721;42.206;25.320;2022-08-19T07:50:36;9.38;;;5.60;;
73487;SDS011;61721;42.206;25.320;2022-08-19T07:53:18;9.68;;;6.00;;
73487;SDS011;61721;42.206;25.320;2022-08-19T07:56:02;8.88;;;5.97;;
73487;SDS011;61721;42.206;25.320;2022-08-19T07:58:47;9.32;;;6.35;;
73487;SDS011;61721;42.206;25.320;2022-08-19T08:01:30;8.30;;;6.15;;
73487;SDS011;61721;42.206;25.320;2022-08-19T08:04:13;11.15;;;6.82;;
73487;SDS011;61721;42.206;25.320;2022-08-19T08:07:12;9.32;;;5.95;;
73487;SDS011;61721;42.206;25.320;2022-08-19T08:10:12;10.80;;;6.03;;
73487;SDS011;61721;42.206;25.320;2022-08-19T08:12:55;12.65;;;6.60;;
73487;SDS011;61721;42.206;25.320;2022-08-19T08:15:38;8.25;;;6.20;;
73487;SDS011;61721;42.206;25.320;2022-08-19T08:18:21;9.35;;;7.10;;
73487;SDS011;61721;42.206;25.320;2022-08-19T08:21:04;11.20;;;6.95;;
73487;SDS011;61721;42.206;25.320;2022-08-19T08:23:46;12.02;;;6.45;;
73487;SDS011;61721;42.206;25.320;2022-08-19T08:26:29;8.48;;;5.93;;
73487;SDS011;61721;42.206;25.320;2022-08-19T08:29:11;11.43;;;6.13;;
73487;SDS011;61721;42.206;25.320;2022-08-19T08:31:57;9.45;;;7.03;;
73487;SDS011;61721;42.206;25.320;2022-08-19T08:34:39;7.80;;;6.25;;
73487;SDS011;61721;42.206;25.320;2022-08-19T08:37:22;8.65;;;5.90;;
73487;SDS011;61721;42.206;25.320;2022-08-19T08:40:04;9.57;;;6.38;;
73487;SDS011;61721;42.206;25.320;2022-08-19T08:42:50;10.57;;;6.82;;
73487;SDS011;61721;42.206;25.320;2022-08-19T08:45:43;9.40;;;6.38;;
73487;SDS011;61721;42.206;25.320;2022-08-19T08:48:46;10.10;;;6.60;;
73487;SDS011;61721;42.206;25.320;2022-08-19T08:51:35;8.77;;;6.90;;
73487;SDS011;61721;42.206;25.320;2022-08-19T08:54:20;11.45;;;6.60;;
73487;SDS011;61721;42.206;25.320;2022-08-19T08:57:12;10.85;;;7.20;;
73487;SDS011;61721;42.206;25.320;2022-08-19T08:59:57;13.52;;;7.10;;
73487;SDS011;61721;42.206;25.320;2022-08-19T09:02:44;10.52;;;6.72;;
73487;SDS011;61721;42.206;25.320;2022-08-19T09:05:30;8.52;;;6.18;;
73487;SDS011;61721;42.206;25.320;2022-08-19T09:08:39;9.25;;;6.35;;
73487;SDS011;61721;42.206;25.320;2022-08-19T09:11:30;8.80;;;5.93;;
73487;SDS011;61721;42.206;25.320;2022-08-19T09:14:28;8.82;;;6.18;;
73487;SDS011;61721;42.206;25.320;2022-08-19T09:17:26;8.85;;;6.00;;
73487;SDS011;61721;42.206;25.320;2022-08-19T09:20:14;9.38;;;6.03;;
73487;SDS011;61721;42.206;25.320;2022-08-19T09:23:01;10.40;;;6.30;;
73487;SDS011;61721;42.206;25.320;2022-08-19T09:25:44;9.10;;;5.85;;
73487;SDS011;61721;42.206;25.320;2022-08-19T09:28:26;9.93;;;5.72;;
73487;SDS011;61721;42.206;25.320;2022-08-19T09:31:09;8.60;;;6.70;;
73487;SDS011;61721;42.206;25.320;2022-08-19T09:33:52;7.43;;;5.82;;
73487;SDS011;61721;42.206;25.320;2022-08-19T09:36:37;10.20;;;5.95;;
73487;SDS011;61721;42.206;25.320;2022-08-19T09:39:21;8.95;;;5.70;;
73487;SDS011;61721;42.206;25.320;2022-08-19T09:42:04;8.90;;;5.63;;
73487;SDS011;61721;42.206;25.320;2022-08-19T09:44:49;7.68;;;6.07;;
73487;SDS011;61721;42.206;25.320;2022-08-19T09:47:32;10.10;;;6.13;;
73487;SDS011;61721;42.206;25.320;2022-08-19T09:50:18;9.05;;;5.68;;
73487;SDS011;61721;42.206;25.320;2022-08-19T09:53:00;7.55;;;5.75;;
73487;SDS011;61721;42.206;25.320;2022-08-19T09:55:44;8.13;;;6.18;;
73487;SDS011;61721;42.206;25.320;2022-08-19T09:58:27;6.72;;;5.38;;
73487;SDS011;61721;42.206;25.320;2022-08-19T10:01:15;9.85;;;5.95;;
73487;SDS011;61721;42.206;25.320;2022-08-19T10:03:59;8.07;;;5.60;;
73487;SDS011;61721;42.206;25.320;2022-08-19T10:06:42;12.18;;;5.68;;
73487;SDS011;61721;42.206;25.320;2022-08-19T10:09:24;8.32;;;5.65;;
73487;SDS011;61721;42.206;25.320;2022-08-19T10:12:08;9.10;;;5.18;;
73487;SDS011;61721;42.206;25.320;2022-08-19T10:14:50;8.07;;;5.20;;
73487;SDS011;61721;42.206;25.320;2022-08-19T10:17:34;6.38;;;5.30;;
73487;SDS011;61721;42.206;25.320;2022-08-19T10:20:17;8.65;;;5.28;;
73487;SDS011;61721;42.206;25.320;2022-08-19T10:23:00;11.90;;;5.45;;
73487;SDS011;61721;42.206;25.320;2022-08-19T10:25:42;7.35;;;5.75;;
73487;SDS011;61721;42.206;25.320;2022-08-19T10:28:26;9.35;;;5.70;;
73487;SDS011;61721;42.206;25.320;2022-08-19T10:31:10;8.00;;;5.75;;
73487;SDS011;61721;42.206;25.320;2022-08-19T10:33:54;8.30;;;5.63;;
73487;SDS011;61721;42.206;25.320;2022-08-19T10:36:37;7.55;;;5.20;;
73487;SDS011;61721;42.206;25.320;2022-08-19T10:39:20;6.55;;;5.07;;
73487;SDS011;61721;42.206;25.320;2022-08-19T10:42:04;6.95;;;5.18;;
73487;SDS011;61721;42.206;25.320;2022-08-19T10:44:48;7.45;;;5.47;;
73487;SDS011;61721;42.206;25.320;2022-08-19T10:47:31;12.52;;;5.32;;
73487;SDS011;61721;42.206;25.320;2022-08-19T10:50:15;8.55;;;5.18;;
73487;SDS011;61721;42.206;25.320;2022-08-19T10:53:15;7.88;;;4.93;;
73487;SDS011;61721;42.206;25.320;2022-08-19T10:55:58;9.98;;;5.53;;
73487;SDS011;61721;42.206;25.320;2022-08-19T10:58:57;9.43;;;5.22;;
73487;SDS011;61721;42.206;25.320;2022-08-19T11:01:42;8.98;;;5.35;;
73487;SDS011;61721;42.206;25.320;2022-08-19T11:04:25;8.20;;;5.60;;
73487;SDS011;61721;42.206;25.320;2022-08-19T11:07:08;9.15;;;5.07;;
73487;SDS011;61721;42.206;25.320;2022-08-19T11:09:52;8.07;;;5.60;;
73487;SDS011;61721;42.206;25.320;2022-08-19T11:12:36;7.97;;;5.18;;
73487;SDS011;61721;42.206;25.320;2022-08-19T11:15:19;6.57;;;5.00;;
73487;SDS011;61721;42.206;25.320;2022-08-19T11:18:04;6.93;;;5.15;;
73487;SDS011;61721;42.206;25.320;2022-08-19T11:20:48;7.32;;;5.55;;
73487;SDS011;61721;42.206;25.320;2022-08-19T11:23:31;7.72;;;4.88;;
73487;SDS011;61721;42.206;25.320;2022-08-19T11:26:13;6.97;;;5.00;;
73487;SDS011;61721;42.206;25.320;2022-08-19T11:28:56;7.25;;;5.35;;
73487;SDS011;61721;42.206;25.320;2022-08-19T11:31:40;7.85;;;5.03;;
73487;SDS011;61721;42.206;25.320;2022-08-19T11:34:26;7.78;;;5.53;;
73487;SDS011;61721;42.206;25.320;2022-08-19T11:37:09;6.18;;;5.07;;
73487;SDS011;61721;42.206;25.320;2022-08-19T11:39:52;7.57;;;5.00;;
73487;SDS011;61721;42.206;25.320;2022-08-19T11:42:34;7.25;;;5.00;;
73487;SDS011;61721;42.206;25.320;2022-08-19T11:45:33;6.75;;;5.10;;
73487;SDS011;61721;42.206;25.320;2022-08-19T11:48:17;7.30;;;5.35;;
73487;SDS011;61721;42.206;25.320;2022-08-19T11:51:04;6.97;;;5.32;;
73487;SDS011;61721;42.206;25.320;2022-08-19T11:53:49;9.45;;;4.68;;
73487;SDS011;61721;42.206;25.320;2022-08-19T11:56:32;7.80;;;5.47;;
73487;SDS011;61721;42.206;25.320;2022-08-19T11:59:14;10.45;;;5.15;;
73487;SDS011;61721;42.206;25.320;2022-08-19T12:01:57;7.22;;;5.38;;
73487;SDS011;61721;42.206;25.320;2022-08-19T12:04:39;7.15;;;5.60;;
73487;SDS011;61721;42.206;25.320;2022-08-19T12:07:24;8.50;;;5.47;;
73487;SDS011;61721;42.206;25.320;2022-08-19T12:10:07;7.28;;;5.00;;
73487;SDS011;61721;42.206;25.320;2022-08-19T12:12:49;7.55;;;4.78;;
73487;SDS011;61721;42.206;25.320;2022-08-19T12:15:34;7.03;;;4.90;;
73487;SDS011;61721;42.206;25.320;2022-08-19T12:18:19;7.78;;;4.53;;
73487;SDS011;61721;42.206;25.320;2022-08-19T12:21:01;11.23;;;5.05;;
73487;SDS011;61721;42.206;25.320;2022-08-19T12:23:45;6.95;;;5.10;;
73487;SDS011;61721;42.206;25.320;2022-08-19T12:26:29;7.43;;;4.53;;
73487;SDS011;61721;42.206;25.320;2022-08-19T12:29:12;8.80;;;4.95;;
73487;SDS011;61721;42.206;25.320;2022-08-19T12:31:55;8.25;;;5.18;;
73487;SDS011;61721;42.206;25.320;2022-08-19T12:34:41;8.43;;;4.97;;
73487;SDS011;61721;42.206;25.320;2022-08-19T12:37:25;8.20;;;4.82;;
73487;SDS011;61721;42.206;25.320;2022-08-19T12:40:09;10.90;;;4.95;;
73487;SDS011;61721;42.206;25.320;2022-08-19T12:42:53;7.45;;;5.38;;
73487;SDS011;61721;42.206;25.320;2022-08-19T12:45:35;6.35;;;4.60;;
73487;SDS011;61721;42.206;25.320;2022-08-19T12:48:18;6.93;;;4.70;;
73487;SDS011;61721;42.206;25.320;2022-08-19T12:51:00;8.65;;;4.50;;
73487;SDS011;61721;42.206;25.320;2022-08-19T12:53:47;6.88;;;4.57;;
73487;SDS011;61721;42.206;25.320;2022-08-19T12:56:31;15.48;;;4.97;;
73487;SDS011;61721;42.206;25.320;2022-08-19T12:59:14;8.85;;;5.20;;
73487;SDS011;61721;42.206;25.320;2022-08-19T13:01:58;8.60;;;4.57;;
73487;SDS011;61721;42.206;25.320;2022-08-19T13:04:41;6.70;;;4.60;;
73487;SDS011;61721;42.206;25.320;2022-08-19T13:07:24;7.18;;;4.60;;
73487;SDS011;61721;42.206;25.320;2022-08-19T13:10:07;7.45;;;4.30;;
73487;SDS011;61721;42.206;25.320;2022-08-19T13:12:54;8.57;;;4.45;;
73487;SDS011;61721;42.206;25.320;2022-08-19T13:15:37;10.23;;;4.40;;
73487;SDS011;61721;42.206;25.320;2022-08-19T13:18:21;6.15;;;4.38;;
73487;SDS011;61721;42.206;25.320;2022-08-19T13:21:05;7.75;;;4.47;;
73487;SDS011;61721;42.206;25.320;2022-08-19T13:23:49;8.57;;;4.60;;
73487;SDS011;61721;42.206;25.320;2022-08-19T13:26:32;11.68;;;4.72;;
73487;SDS011;61721;42.206;25.320;2022-08-19T13:29:15;8.80;;;5.03;;
73487;SDS011;61721;42.206;25.320;2022-08-19T13:32:15;7.40;;;4.78;;
73487;SDS011;61721;42.206;25.320;2022-08-19T13:35:15;6.97;;;4.43;;
73487;SDS011;61721;42.206;25.320;2022-08-19T13:37:58;7.28;;;4.65;;
73487;SDS011;61721;42.206;25.320;2022-08-19T13:40:41;6.15;;;4.50;;
73487;SDS011;61721;42.206;25.320;2022-08-19T13:43:25;8.40;;;4.55;;
73487;SDS011;61721;42.206;25.320;2022-08-19T13:46:10;7.53;;;4.45;;
73487;SDS011;61721;42.206;25.320;2022-08-19T13:48:54;6.57;;;4.50;;
73487;SDS011;61721;42.206;25.320;2022-08-19T13:51:37;7.53;;;4.53;;
73487;SDS011;61721;42.206;25.320;2022-08-19T13:54:20;6.97;;;4.20;;
73487;SDS011;61721;42.206;25.320;2022-08-19T13:57:02;6.57;;;3.63;;
73487;SDS011;61721;42.206;25.320;2022-08-19T13:59:45;7.40;;;3.25;;
73487;SDS011;61721;42.206;25.320;2022-08-19T14:02:29;7.07;;;3.40;;
73487;SDS011;61721;42.206;25.320;2022-08-19T14:05:12;5.97;;;2.92;;
73487;SDS011;61721;42.206;25.320;2022-08-19T14:07:56;7.75;;;3.25;;
73487;SDS011;61721;42.206;25.320;2022-08-19T14:10:39;6.97;;;3.08;;
73487;SDS011;61721;42.206;25.320;2022-08-19T14:13:24;5.72;;;3.70;;
73487;SDS011;61721;42.206;25.320;2022-08-19T14:16:07;7.20;;;3.55;;
73487;SDS011;61721;42.206;25.320;2022-08-19T14:18:52;8.23;;;3.55;;
73487;SDS011;61721;42.206;25.320;2022-08-19T14:21:34;9.63;;;3.13;;
73487;SDS011;61721;42.206;25.320;2022-08-19T14:24:17;4.88;;;3.30;;
73487;SDS011;61721;42.206;25.320;2022-08-19T14:26:59;6.13;;;3.15;;
73487;SDS011;61721;42.206;25.320;2022-08-19T14:29:43;5.20;;;2.90;;
73487;SDS011;61721;42.206;25.320;2022-08-19T14:32:26;6.05;;;3.30;;
73487;SDS011;61721;42.206;25.320;2022-08-19T14:35:11;5.00;;;3.00;;
73487;SDS011;61721;42.206;25.320;2022-08-19T14:37:55;6.20;;;2.88;;
73487;SDS011;61721;42.206;25.320;2022-08-19T14:40:38;6.63;;;3.00;;
73487;SDS011;61721;42.206;25.320;2022-08-19T14:43:22;5.05;;;3.15;;
73487;SDS011;61721;42.206;25.320;2022-08-19T14:46:04;4.70;;;3.05;;
73487;SDS011;61721;42.206;25.320;2022-08-19T14:48:48;5.35;;;3.08;;
73487;SDS011;61721;42.206;25.320;2022-08-19T14:51:32;9.18;;;3.50;;
73487;SDS011;61721;42.206;25.320;2022-08-19T14:54:15;6.35;;;3.40;;
73487;SDS011;61721;42.206;25.320;2022-08-19T14:56:57;7.55;;;3.22;;
73487;SDS011;61721;42.206;25.320;2022-08-19T14:59:40;7.03;;;3.10;;
73487;SDS011;61721;42.206;25.320;2022-08-19T15:02:22;7.15;;;3.50;;
73487;SDS011;61721;42.206;25.320;2022-08-19T15:05:05;7.57;;;3.42;;
73487;SDS011;61721;42.206;25.320;2022-08-19T15:07:49;7.97;;;3.22;;
73487;SDS011;61721;42.206;25.320;2022-08-19T15:10:31;6.40;;;3.60;;
73487;SDS011;61721;42.206;25.320;2022-08-19T15:13:14;7.68;;;3.30;;
73487;SDS011;61721;42.206;25.320;2022-08-19T15:15:56;6.43;;;3.20;;
73487;SDS011;61721;42.206;25.320;2022-08-19T15:18:38;5.50;;;3.03;;
73487;SDS011;61721;42.206;25.320;2022-08-19T15:21:24;5.13;;;3.33;;
73487;SDS011;61721;42.206;25.320;2022-08-19T15:24:09;5.95;;;3.15;;
73487;SDS011;61721;42.206;25.320;2022-08-19T15:26:52;5.50;;;3.22;;
73487;SDS011;61721;42.206;25.320;2022-08-19T15:29:36;6.20;;;3.63;;
73487;SDS011;61721;42.206;25.320;2022-08-19T15:32:18;8.65;;;3.60;;
73487;SDS011;61721;42.206;25.320;2022-08-19T15:35:02;6.95;;;3.20;;
73487;SDS011;61721;42.206;25.320;2022-08-19T15:37:47;6.30;;;3.60;;
73487;SDS011;61721;42.206;25.320;2022-08-19T15:40:32;7.55;;;3.42;;
73487;SDS011;61721;42.206;25.320;2022-08-19T15:43:14;7.05;;;3.35;;
73487;SDS011;61721;42.206;25.320;2022-08-19T15:45:58;5.20;;;3.28;;
73487;SDS011;61721;42.206;25.320;2022-08-19T15:48:40;5.57;;;3.38;;
73487;SDS011;61721;42.206;25.320;2022-08-19T15:51:23;4.93;;;3.20;;
73487;SDS011;61721;42.206;25.320;2022-08-19T15:54:07;9.57;;;3.22;;
73487;SDS011;61721;42.206;25.320;2022-08-19T15:56:53;9.73;;;3.80;;
73487;SDS011;61721;42.206;25.320;2022-08-19T15:59:53;5.20;;;3.00;;
73487;SDS011;61721;42.206;25.320;2022-08-19T16:02:53;7.80;;;3.38;;
73487;SDS011;61721;42.206;25.320;2022-08-19T16:05:52;5.90;;;3.35;;
73487;SDS011;61721;42.206;25.320;2022-08-19T16:08:55;8.10;;;3.13;;
73487;SDS011;61721;42.206;25.320;2022-08-19T16:11:39;4.65;;;3.05;;
73487;SDS011;61721;42.206;25.320;2022-08-19T16:14:24;6.88;;;3.42;;
73487;SDS011;61721;42.206;25.320;2022-08-19T16:17:06;5.25;;;3.38;;
73487;SDS011;61721;42.206;25.320;2022-08-19T16:19:51;7.35;;;3.72;;
73487;SDS011;61721;42.206;25.320;2022-08-19T16:22:34;8.40;;;3.72;;
73487;SDS011;61721;42.206;25.320;2022-08-19T16:25:17;8.63;;;3.33;;
73487;SDS011;61721;42.206;25.320;2022-08-19T16:27:59;12.82;;;3.97;;
73487;SDS011;61721;42.206;25.320;2022-08-19T16:30:43;6.93;;;3.72;;
73487;SDS011;61721;42.206;25.320;2022-08-19T16:33:25;8.30;;;3.60;;
73487;SDS011;61721;42.206;25.320;2022-08-19T16:36:08;6.07;;;3.15;;
73487;SDS011;61721;42.206;25.320;2022-08-19T16:38:51;6.22;;;3.40;;
73487;SDS011;61721;42.206;25.320;2022-08-19T16:41:34;7.13;;;3.50;;
73487;SDS011;61721;42.206;25.320;2022-08-19T16:44:17;7.78;;;3.60;;
73487;SDS011;61721;42.206;25.320;2022-08-19T16:47:01;8.18;;;3.25;;
73487;SDS011;61721;42.206;25.320;2022-08-19T16:49:44;7.82;;;3.53;;
73487;SDS011;61721;42.206;25.320;2022-08-19T16:52:26;6.15;;;3.40;;
73487;SDS011;61721;42.206;25.320;2022-08-19T16:55:08;6.30;;;3.08;;
73487;SDS011;61721;42.206;25.320;2022-08-19T16:57:50;7.70;;;3.20;;
73487;SDS011;61721;42.206;25.320;2022-08-19T17:00:33;7.15;;;3.35;;